sensor_id;sensor_type;location;lat;lon;timestamp;P1;durP1;ratioP1;P2;durP2;ratioP2
74636;SDS011;63141;54.616;39.754;2023-07-16T00:01:18;11.13;;;6.63;;
74636;SDS011;63141;54.616;39.754;2023-07-16T00:04:25;18.25;;;6.32;;
74636;SDS011;63141;54.616;39.754;2023-07-16T00:07:26;9.25;;;6.63;;
74636;SDS011;63141;54.616;39.754;2023-07-16T00:10:27;10.35;;;6.15;;
74636;SDS011;63141;54.616;39.754;2023-07-16T00:13:29;11.02;;;6.18;;
74636;SDS011;63141;54.616;39.754;2023-07-16T00:16:30;13.15;;;6.47;;
74636;SDS011;63141;54.616;39.754;2023-07-16T00:19:31;8.45;;;5.90;;
74636;SDS011;63141;54.616;39.754;2023-07-16T00:22:33;9.63;;;6.28;;
74636;SDS011;63141;54.616;39.754;2023-07-16T00:25:34;15.10;;;6.65;;
74636;SDS011;63141;54.616;39.754;2023-07-16T00:28:36;9.02;;;5.95;;
74636;SDS011;63141;54.616;39.754;2023-07-16T00:31:37;9.43;;;6.18;;
74636;SDS011;63141;54.616;39.754;2023-07-16T00:34:38;9.40;;;5.85;;
74636;SDS011;63141;54.616;39.754;2023-07-16T00:37:40;9.43;;;6.15;;
74636;SDS011;63141;54.616;39.754;2023-07-16T00:40:41;9.43;;;6.22;;
74636;SDS011;63141;54.616;39.754;2023-07-16T00:43:43;8.32;;;5.10;;
74636;SDS011;63141;54.616;39.754;2023-07-16T00:46:44;10.35;;;6.47;;
74636;SDS011;63141;54.616;39.754;2023-07-16T00:49:47;10.18;;;6.13;;
74636;SDS011;63141;54.616;39.754;2023-07-16T00:52:48;9.90;;;6.22;;
74636;SDS011;63141;54.616;39.754;2023-07-16T00:55:50;9.90;;;6.03;;
74636;SDS011;63141;54.616;39.754;2023-07-16T00:58:52;9.82;;;5.78;;
74636;SDS011;63141;54.616;39.754;2023-07-16T01:01:55;8.48;;;5.22;;
74636;SDS011;63141;54.616;39.754;2023-07-16T01:05:02;9.43;;;5.90;;
74636;SDS011;63141;54.616;39.754;2023-07-16T01:08:06;9.95;;;5.72;;
74636;SDS011;63141;54.616;39.754;2023-07-16T01:11:10;10.20;;;6.28;;
74636;SDS011;63141;54.616;39.754;2023-07-16T01:14:12;9.95;;;5.93;;
74636;SDS011;63141;54.616;39.754;2023-07-16T01:17:15;7.53;;;5.35;;
74636;SDS011;63141;54.616;39.754;2023-07-16T01:20:16;11.25;;;5.72;;
74636;SDS011;63141;54.616;39.754;2023-07-16T01:23:26;7.80;;;5.43;;
74636;SDS011;63141;54.616;39.754;2023-07-16T01:30:09;7.68;;;5.25;;
74636;SDS011;63141;54.616;39.754;2023-07-16T01:33:16;9.98;;;5.65;;
74636;SDS011;63141;54.616;39.754;2023-07-16T01:36:23;7.32;;;5.30;;
74636;SDS011;63141;54.616;39.754;2023-07-16T01:39:25;8.50;;;5.38;;
74636;SDS011;63141;54.616;39.754;2023-07-16T01:42:27;8.35;;;5.13;;
74636;SDS011;63141;54.616;39.754;2023-07-16T01:45:29;9.60;;;5.70;;
74636;SDS011;63141;54.616;39.754;2023-07-16T01:48:32;8.35;;;5.00;;
74636;SDS011;63141;54.616;39.754;2023-07-16T01:51:36;7.10;;;5.03;;
74636;SDS011;63141;54.616;39.754;2023-07-16T01:54:37;8.95;;;5.50;;
74636;SDS011;63141;54.616;39.754;2023-07-16T01:57:39;8.73;;;5.70;;
74636;SDS011;63141;54.616;39.754;2023-07-16T02:00:43;8.88;;;5.32;;
74636;SDS011;63141;54.616;39.754;2023-07-16T02:03:44;9.32;;;5.95;;
74636;SDS011;63141;54.616;39.754;2023-07-16T02:06:48;9.65;;;5.80;;
74636;SDS011;63141;54.616;39.754;2023-07-16T02:09:54;10.25;;;5.80;;
74636;SDS011;63141;54.616;39.754;2023-07-16T02:12:55;9.43;;;6.22;;
74636;SDS011;63141;54.616;39.754;2023-07-16T02:15:57;13.48;;;6.07;;
74636;SDS011;63141;54.616;39.754;2023-07-16T02:18:58;13.50;;;6.35;;
74636;SDS011;63141;54.616;39.754;2023-07-16T02:21:59;13.00;;;6.45;;
74636;SDS011;63141;54.616;39.754;2023-07-16T02:25:03;11.60;;;6.63;;
74636;SDS011;63141;54.616;39.754;2023-07-16T02:28:05;10.65;;;6.32;;
74636;SDS011;63141;54.616;39.754;2023-07-16T02:31:06;11.00;;;6.50;;
74636;SDS011;63141;54.616;39.754;2023-07-16T02:34:08;10.13;;;5.93;;
74636;SDS011;63141;54.616;39.754;2023-07-16T02:37:09;13.15;;;6.68;;
74636;SDS011;63141;54.616;39.754;2023-07-16T02:40:10;10.80;;;6.70;;
74636;SDS011;63141;54.616;39.754;2023-07-16T02:43:12;16.40;;;8.02;;
74636;SDS011;63141;54.616;39.754;2023-07-16T02:46:13;16.00;;;7.90;;
74636;SDS011;63141;54.616;39.754;2023-07-16T02:49:15;13.82;;;7.85;;
74636;SDS011;63141;54.616;39.754;2023-07-16T02:52:16;19.15;;;8.82;;
74636;SDS011;63141;54.616;39.754;2023-07-16T02:55:17;17.92;;;8.32;;
74636;SDS011;63141;54.616;39.754;2023-07-16T02:58:19;13.30;;;7.97;;
74636;SDS011;63141;54.616;39.754;2023-07-16T03:01:20;13.85;;;8.63;;
74636;SDS011;63141;54.616;39.754;2023-07-16T03:04:27;12.20;;;7.30;;
74636;SDS011;63141;54.616;39.754;2023-07-16T03:07:28;16.10;;;7.63;;
74636;SDS011;63141;54.616;39.754;2023-07-16T03:10:30;16.42;;;7.18;;
74636;SDS011;63141;54.616;39.754;2023-07-16T03:13:31;15.85;;;7.40;;
74636;SDS011;63141;54.616;39.754;2023-07-16T03:16:32;14.50;;;8.50;;
74636;SDS011;63141;54.616;39.754;2023-07-16T03:19:34;14.38;;;7.15;;
74636;SDS011;63141;54.616;39.754;2023-07-16T03:22:35;23.25;;;7.90;;
74636;SDS011;63141;54.616;39.754;2023-07-16T03:25:36;16.13;;;7.35;;
74636;SDS011;63141;54.616;39.754;2023-07-16T03:28:38;14.55;;;7.75;;
74636;SDS011;63141;54.616;39.754;2023-07-16T03:31:41;15.45;;;7.35;;
74636;SDS011;63141;54.616;39.754;2023-07-16T03:34:44;12.77;;;7.10;;
74636;SDS011;63141;54.616;39.754;2023-07-16T03:37:46;14.68;;;7.63;;
74636;SDS011;63141;54.616;39.754;2023-07-16T03:40:47;12.52;;;6.75;;
74636;SDS011;63141;54.616;39.754;2023-07-16T03:43:49;13.32;;;6.15;;
74636;SDS011;63141;54.616;39.754;2023-07-16T03:46:54;15.85;;;7.30;;
74636;SDS011;63141;54.616;39.754;2023-07-16T03:49:55;13.48;;;7.07;;
74636;SDS011;63141;54.616;39.754;2023-07-16T03:52:57;10.68;;;6.65;;
74636;SDS011;63141;54.616;39.754;2023-07-16T03:55:58;13.63;;;6.55;;
74636;SDS011;63141;54.616;39.754;2023-07-16T03:58:59;11.88;;;6.35;;
74636;SDS011;63141;54.616;39.754;2023-07-16T04:02:01;12.32;;;6.18;;
74636;SDS011;63141;54.616;39.754;2023-07-16T04:05:08;11.48;;;6.18;;
74636;SDS011;63141;54.616;39.754;2023-07-16T04:08:09;12.25;;;6.15;;
74636;SDS011;63141;54.616;39.754;2023-07-16T04:11:10;9.40;;;6.15;;
74636;SDS011;63141;54.616;39.754;2023-07-16T04:14:12;8.45;;;5.72;;
74636;SDS011;63141;54.616;39.754;2023-07-16T04:17:13;12.18;;;6.03;;
74636;SDS011;63141;54.616;39.754;2023-07-16T04:20:14;10.77;;;5.80;;
74636;SDS011;63141;54.616;39.754;2023-07-16T04:23:16;7.78;;;5.85;;
74636;SDS011;63141;54.616;39.754;2023-07-16T04:26:17;8.35;;;5.65;;
74636;SDS011;63141;54.616;39.754;2023-07-16T04:29:19;8.65;;;5.43;;
74636;SDS011;63141;54.616;39.754;2023-07-16T04:32:20;7.43;;;5.28;;
74636;SDS011;63141;54.616;39.754;2023-07-16T04:35:23;8.88;;;5.65;;
74636;SDS011;63141;54.616;39.754;2023-07-16T04:38:24;9.77;;;5.50;;
74636;SDS011;63141;54.616;39.754;2023-07-16T04:41:27;10.52;;;5.47;;
74636;SDS011;63141;54.616;39.754;2023-07-16T04:44:28;7.85;;;5.32;;
74636;SDS011;63141;54.616;39.754;2023-07-16T04:47:29;11.80;;;5.65;;
74636;SDS011;63141;54.616;39.754;2023-07-16T04:50:31;7.70;;;4.95;;
74636;SDS011;63141;54.616;39.754;2023-07-16T04:53:32;8.80;;;5.55;;
74636;SDS011;63141;54.616;39.754;2023-07-16T04:56:33;10.23;;;5.07;;
74636;SDS011;63141;54.616;39.754;2023-07-16T04:59:35;8.10;;;5.38;;
74636;SDS011;63141;54.616;39.754;2023-07-16T05:02:36;8.20;;;5.07;;
74636;SDS011;63141;54.616;39.754;2023-07-16T05:05:43;6.50;;;4.53;;
74636;SDS011;63141;54.616;39.754;2023-07-16T05:08:44;9.00;;;4.85;;
74636;SDS011;63141;54.616;39.754;2023-07-16T05:11:45;7.70;;;5.05;;
74636;SDS011;63141;54.616;39.754;2023-07-16T05:14:47;7.50;;;4.90;;
74636;SDS011;63141;54.616;39.754;2023-07-16T05:17:49;7.60;;;4.75;;
74636;SDS011;63141;54.616;39.754;2023-07-16T05:20:50;6.75;;;4.47;;
74636;SDS011;63141;54.616;39.754;2023-07-16T05:23:52;6.68;;;4.65;;
74636;SDS011;63141;54.616;39.754;2023-07-16T05:26:53;5.60;;;4.53;;
74636;SDS011;63141;54.616;39.754;2023-07-16T05:29:55;7.93;;;4.20;;
74636;SDS011;63141;54.616;39.754;2023-07-16T05:32:56;7.07;;;4.45;;
74636;SDS011;63141;54.616;39.754;2023-07-16T05:35:57;5.55;;;4.32;;
74636;SDS011;63141;54.616;39.754;2023-07-16T05:38:59;6.65;;;4.18;;
74636;SDS011;63141;54.616;39.754;2023-07-16T05:42:00;7.40;;;4.38;;
74636;SDS011;63141;54.616;39.754;2023-07-16T05:45:04;7.38;;;3.85;;
74636;SDS011;63141;54.616;39.754;2023-07-16T05:48:06;4.72;;;4.05;;
74636;SDS011;63141;54.616;39.754;2023-07-16T05:51:07;5.28;;;4.13;;
74636;SDS011;63141;54.616;39.754;2023-07-16T05:54:09;6.65;;;4.22;;
74636;SDS011;63141;54.616;39.754;2023-07-16T05:57:10;5.72;;;4.10;;
74636;SDS011;63141;54.616;39.754;2023-07-16T06:00:14;9.43;;;4.32;;
74636;SDS011;63141;54.616;39.754;2023-07-16T06:03:17;5.78;;;4.05;;
74636;SDS011;63141;54.616;39.754;2023-07-16T06:06:20;8.75;;;5.15;;
74636;SDS011;63141;54.616;39.754;2023-07-16T06:09:22;7.68;;;5.07;;
74636;SDS011;63141;54.616;39.754;2023-07-16T06:12:23;7.53;;;5.05;;
74636;SDS011;63141;54.616;39.754;2023-07-16T06:15:24;7.63;;;5.10;;
74636;SDS011;63141;54.616;39.754;2023-07-16T06:18:26;6.82;;;4.82;;
74636;SDS011;63141;54.616;39.754;2023-07-16T06:21:27;7.10;;;5.05;;
74636;SDS011;63141;54.616;39.754;2023-07-16T06:24:28;24.88;;;7.10;;
74636;SDS011;63141;54.616;39.754;2023-07-16T06:27:30;11.18;;;6.10;;
74636;SDS011;63141;54.616;39.754;2023-07-16T06:30:31;12.38;;;6.20;;
74636;SDS011;63141;54.616;39.754;2023-07-16T06:33:33;15.45;;;8.13;;
74636;SDS011;63141;54.616;39.754;2023-07-16T06:36:35;16.23;;;9.23;;
74636;SDS011;63141;54.616;39.754;2023-07-16T06:39:42;17.10;;;8.27;;
74636;SDS011;63141;54.616;39.754;2023-07-16T06:42:43;19.25;;;9.52;;
74636;SDS011;63141;54.616;39.754;2023-07-16T06:45:45;16.48;;;9.73;;
74636;SDS011;63141;54.616;39.754;2023-07-16T06:48:46;20.17;;;8.90;;
74636;SDS011;63141;54.616;39.754;2023-07-16T06:51:53;18.05;;;8.55;;
74636;SDS011;63141;54.616;39.754;2023-07-16T06:54:55;16.70;;;8.75;;
74636;SDS011;63141;54.616;39.754;2023-07-16T06:57:56;16.10;;;7.82;;
74636;SDS011;63141;54.616;39.754;2023-07-16T07:01:00;13.32;;;7.85;;
74636;SDS011;63141;54.616;39.754;2023-07-16T07:04:01;13.55;;;7.20;;
74636;SDS011;63141;54.616;39.754;2023-07-16T07:10:15;11.20;;;7.20;;
74636;SDS011;63141;54.616;39.754;2023-07-16T07:13:16;15.65;;;6.20;;
74636;SDS011;63141;54.616;39.754;2023-07-16T07:16:20;10.20;;;6.72;;
74636;SDS011;63141;54.616;39.754;2023-07-16T07:19:22;11.35;;;6.30;;
74636;SDS011;63141;54.616;39.754;2023-07-16T07:22:23;9.45;;;5.85;;
74636;SDS011;63141;54.616;39.754;2023-07-16T07:25:27;12.85;;;6.32;;
74636;SDS011;63141;54.616;39.754;2023-07-16T07:28:31;10.00;;;5.70;;
74636;SDS011;63141;54.616;39.754;2023-07-16T07:31:36;9.15;;;5.60;;
74636;SDS011;63141;54.616;39.754;2023-07-16T07:34:43;9.15;;;5.30;;
74636;SDS011;63141;54.616;39.754;2023-07-16T07:37:44;6.53;;;4.88;;
74636;SDS011;63141;54.616;39.754;2023-07-16T07:40:48;8.00;;;5.07;;
74636;SDS011;63141;54.616;39.754;2023-07-16T07:43:50;9.50;;;5.82;;
74636;SDS011;63141;54.616;39.754;2023-07-16T07:46:57;9.57;;;5.65;;
74636;SDS011;63141;54.616;39.754;2023-07-16T07:49:58;9.65;;;5.50;;
74636;SDS011;63141;54.616;39.754;2023-07-16T07:53:00;6.05;;;4.68;;
74636;SDS011;63141;54.616;39.754;2023-07-16T07:56:04;7.38;;;5.05;;
74636;SDS011;63141;54.616;39.754;2023-07-16T07:59:05;8.55;;;5.18;;
74636;SDS011;63141;54.616;39.754;2023-07-16T08:02:07;8.10;;;5.13;;
74636;SDS011;63141;54.616;39.754;2023-07-16T08:05:22;7.53;;;5.18;;
74636;SDS011;63141;54.616;39.754;2023-07-16T08:08:26;12.20;;;5.25;;
74636;SDS011;63141;54.616;39.754;2023-07-16T08:11:31;12.82;;;5.53;;
74636;SDS011;63141;54.616;39.754;2023-07-16T08:14:35;9.95;;;5.10;;
74636;SDS011;63141;54.616;39.754;2023-07-16T08:17:40;7.40;;;5.28;;
74636;SDS011;63141;54.616;39.754;2023-07-16T08:20:46;11.43;;;5.55;;
74636;SDS011;63141;54.616;39.754;2023-07-16T08:23:54;7.55;;;5.30;;
74636;SDS011;63141;54.616;39.754;2023-07-16T08:26:55;6.78;;;5.10;;
74636;SDS011;63141;54.616;39.754;2023-07-16T08:29:57;8.38;;;5.18;;
74636;SDS011;63141;54.616;39.754;2023-07-16T08:32:58;8.10;;;5.60;;
74636;SDS011;63141;54.616;39.754;2023-07-16T08:35:59;7.22;;;5.38;;
74636;SDS011;63141;54.616;39.754;2023-07-16T08:39:09;8.95;;;4.90;;
74636;SDS011;63141;54.616;39.754;2023-07-16T08:42:14;9.98;;;5.00;;
74636;SDS011;63141;54.616;39.754;2023-07-16T08:45:24;6.88;;;4.88;;
74636;SDS011;63141;54.616;39.754;2023-07-16T08:48:32;8.18;;;5.05;;
74636;SDS011;63141;54.616;39.754;2023-07-16T08:51:34;7.47;;;4.97;;
74636;SDS011;63141;54.616;39.754;2023-07-16T08:54:38;5.70;;;4.88;;
74636;SDS011;63141;54.616;39.754;2023-07-16T08:57:40;7.45;;;4.88;;
74636;SDS011;63141;54.616;39.754;2023-07-16T09:00:50;7.25;;;4.90;;
74636;SDS011;63141;54.616;39.754;2023-07-16T09:03:53;6.68;;;4.30;;
74636;SDS011;63141;54.616;39.754;2023-07-16T09:06:57;6.88;;;4.68;;
74636;SDS011;63141;54.616;39.754;2023-07-16T09:10:01;5.13;;;4.57;;
74636;SDS011;63141;54.616;39.754;2023-07-16T09:13:02;6.40;;;4.70;;
74636;SDS011;63141;54.616;39.754;2023-07-16T09:16:13;6.22;;;4.80;;
74636;SDS011;63141;54.616;39.754;2023-07-16T09:19:17;5.40;;;4.47;;
74636;SDS011;63141;54.616;39.754;2023-07-16T09:22:19;5.18;;;4.07;;
74636;SDS011;63141;54.616;39.754;2023-07-16T09:25:30;6.07;;;4.85;;
74636;SDS011;63141;54.616;39.754;2023-07-16T09:28:36;6.60;;;4.68;;
74636;SDS011;63141;54.616;39.754;2023-07-16T09:31:37;5.07;;;4.50;;
74636;SDS011;63141;54.616;39.754;2023-07-16T09:34:44;4.90;;;4.30;;
74636;SDS011;63141;54.616;39.754;2023-07-16T09:37:51;6.10;;;4.70;;
74636;SDS011;63141;54.616;39.754;2023-07-16T09:40:56;5.47;;;4.47;;
74636;SDS011;63141;54.616;39.754;2023-07-16T09:44:03;6.53;;;4.10;;
74636;SDS011;63141;54.616;39.754;2023-07-16T09:47:05;6.53;;;4.50;;
74636;SDS011;63141;54.616;39.754;2023-07-16T09:50:12;4.40;;;3.80;;
74636;SDS011;63141;54.616;39.754;2023-07-16T09:53:14;5.68;;;4.22;;
74636;SDS011;63141;54.616;39.754;2023-07-16T09:56:24;6.50;;;4.30;;
74636;SDS011;63141;54.616;39.754;2023-07-16T09:59:34;4.90;;;3.97;;
74636;SDS011;63141;54.616;39.754;2023-07-16T10:02:36;8.32;;;4.25;;
74636;SDS011;63141;54.616;39.754;2023-07-16T10:05:43;6.50;;;4.20;;
74636;SDS011;63141;54.616;39.754;2023-07-16T10:08:50;4.85;;;4.20;;
74636;SDS011;63141;54.616;39.754;2023-07-16T10:11:52;6.50;;;4.60;;
74636;SDS011;63141;54.616;39.754;2023-07-16T10:14:53;5.20;;;3.85;;
74636;SDS011;63141;54.616;39.754;2023-07-16T10:17:59;7.57;;;4.53;;
74636;SDS011;63141;54.616;39.754;2023-07-16T10:21:09;4.30;;;3.63;;
74636;SDS011;63141;54.616;39.754;2023-07-16T10:24:16;5.43;;;4.13;;
74636;SDS011;63141;54.616;39.754;2023-07-16T10:27:29;6.13;;;4.10;;
74636;SDS011;63141;54.616;39.754;2023-07-16T10:30:32;4.63;;;3.90;;
74636;SDS011;63141;54.616;39.754;2023-07-16T10:33:35;4.43;;;3.53;;
74636;SDS011;63141;54.616;39.754;2023-07-16T10:36:39;4.45;;;3.67;;
74636;SDS011;63141;54.616;39.754;2023-07-16T10:39:57;4.20;;;3.80;;
74636;SDS011;63141;54.616;39.754;2023-07-16T10:43:12;5.65;;;4.20;;
74636;SDS011;63141;54.616;39.754;2023-07-16T10:46:16;5.68;;;4.05;;
74636;SDS011;63141;54.616;39.754;2023-07-16T10:49:30;6.88;;;3.75;;
74636;SDS011;63141;54.616;39.754;2023-07-16T10:52:31;4.93;;;3.72;;
74636;SDS011;63141;54.616;39.754;2023-07-16T10:55:35;8.75;;;4.07;;
74636;SDS011;63141;54.616;39.754;2023-07-16T10:58:39;5.10;;;3.67;;
74636;SDS011;63141;54.616;39.754;2023-07-16T11:01:43;4.35;;;3.75;;
74636;SDS011;63141;54.616;39.754;2023-07-16T11:04:58;4.97;;;3.95;;
74636;SDS011;63141;54.616;39.754;2023-07-16T11:08:09;4.60;;;3.75;;
74636;SDS011;63141;54.616;39.754;2023-07-16T11:11:29;4.90;;;3.85;;
74636;SDS011;63141;54.616;39.754;2023-07-16T11:14:34;4.47;;;3.83;;
74636;SDS011;63141;54.616;39.754;2023-07-16T11:17:48;4.97;;;3.72;;
74636;SDS011;63141;54.616;39.754;2023-07-16T11:20:56;5.03;;;3.90;;
74636;SDS011;63141;54.616;39.754;2023-07-16T11:24:15;5.35;;;3.60;;
74636;SDS011;63141;54.616;39.754;2023-07-16T11:27:18;4.25;;;3.67;;
74636;SDS011;63141;54.616;39.754;2023-07-16T11:30:26;5.78;;;3.75;;
74636;SDS011;63141;54.616;39.754;2023-07-16T11:33:34;4.88;;;3.80;;
74636;SDS011;63141;54.616;39.754;2023-07-16T11:36:36;7.15;;;3.97;;
74636;SDS011;63141;54.616;39.754;2023-07-16T11:39:37;6.10;;;3.53;;
74636;SDS011;63141;54.616;39.754;2023-07-16T11:42:42;4.40;;;3.67;;
74636;SDS011;63141;54.616;39.754;2023-07-16T11:45:49;4.72;;;3.90;;
74636;SDS011;63141;54.616;39.754;2023-07-16T11:48:51;4.88;;;3.83;;
74636;SDS011;63141;54.616;39.754;2023-07-16T11:52:01;5.43;;;3.80;;
74636;SDS011;63141;54.616;39.754;2023-07-16T11:55:05;7.63;;;3.97;;
74636;SDS011;63141;54.616;39.754;2023-07-16T11:58:10;4.00;;;3.60;;
74636;SDS011;63141;54.616;39.754;2023-07-16T12:01:22;5.53;;;3.50;;
74636;SDS011;63141;54.616;39.754;2023-07-16T12:04:24;4.70;;;3.72;;
74636;SDS011;63141;54.616;39.754;2023-07-16T12:07:35;4.70;;;3.90;;
74636;SDS011;63141;54.616;39.754;2023-07-16T12:10:40;5.30;;;3.85;;
74636;SDS011;63141;54.616;39.754;2023-07-16T12:13:47;4.38;;;3.65;;
74636;SDS011;63141;54.616;39.754;2023-07-16T12:16:57;4.65;;;3.83;;
74636;SDS011;63141;54.616;39.754;2023-07-16T12:20:02;9.80;;;3.67;;
74636;SDS011;63141;54.616;39.754;2023-07-16T12:23:19;4.32;;;3.90;;
74636;SDS011;63141;54.616;39.754;2023-07-16T12:26:24;5.50;;;4.10;;
74636;SDS011;63141;54.616;39.754;2023-07-16T12:29:34;5.00;;;3.60;;
74636;SDS011;63141;54.616;39.754;2023-07-16T12:32:35;3.65;;;3.30;;
74636;SDS011;63141;54.616;39.754;2023-07-16T12:35:48;4.13;;;3.72;;
74636;SDS011;63141;54.616;39.754;2023-07-16T12:38:50;4.80;;;3.72;;
74636;SDS011;63141;54.616;39.754;2023-07-16T12:42:00;4.15;;;3.65;;
74636;SDS011;63141;54.616;39.754;2023-07-16T12:45:02;4.97;;;4.10;;
74636;SDS011;63141;54.616;39.754;2023-07-16T12:48:03;5.88;;;3.80;;
74636;SDS011;63141;54.616;39.754;2023-07-16T12:51:20;6.05;;;3.83;;
74636;SDS011;63141;54.616;39.754;2023-07-16T12:54:21;7.65;;;3.53;;
74636;SDS011;63141;54.616;39.754;2023-07-16T12:57:25;7.10;;;3.60;;
74636;SDS011;63141;54.616;39.754;2023-07-16T13:00:29;4.82;;;3.47;;
74636;SDS011;63141;54.616;39.754;2023-07-16T13:03:42;5.13;;;4.05;;
74636;SDS011;63141;54.616;39.754;2023-07-16T13:06:52;5.18;;;3.55;;
74636;SDS011;63141;54.616;39.754;2023-07-16T13:09:53;4.00;;;3.53;;
74636;SDS011;63141;54.616;39.754;2023-07-16T13:13:06;4.07;;;3.40;;
74636;SDS011;63141;54.616;39.754;2023-07-16T13:16:08;3.45;;;3.13;;
74636;SDS011;63141;54.616;39.754;2023-07-16T13:19:15;3.33;;;3.03;;
74636;SDS011;63141;54.616;39.754;2023-07-16T13:22:31;4.38;;;3.55;;
74636;SDS011;63141;54.616;39.754;2023-07-16T13:25:41;5.38;;;3.75;;
74636;SDS011;63141;54.616;39.754;2023-07-16T13:28:46;4.03;;;3.30;;
74636;SDS011;63141;54.616;39.754;2023-07-16T13:31:50;5.35;;;3.30;;
74636;SDS011;63141;54.616;39.754;2023-07-16T13:35:06;4.78;;;3.25;;
74636;SDS011;63141;54.616;39.754;2023-07-16T13:38:11;6.60;;;3.67;;
74636;SDS011;63141;54.616;39.754;2023-07-16T13:41:15;3.75;;;3.38;;
74636;SDS011;63141;54.616;39.754;2023-07-16T13:44:22;3.83;;;3.40;;
74636;SDS011;63141;54.616;39.754;2023-07-16T13:47:29;3.50;;;3.10;;
74636;SDS011;63141;54.616;39.754;2023-07-16T13:50:42;5.28;;;3.17;;
74636;SDS011;63141;54.616;39.754;2023-07-16T13:53:47;5.22;;;3.38;;
74636;SDS011;63141;54.616;39.754;2023-07-16T13:56:48;3.60;;;3.20;;
74636;SDS011;63141;54.616;39.754;2023-07-16T13:59:50;7.18;;;3.05;;
74636;SDS011;63141;54.616;39.754;2023-07-16T14:02:57;5.75;;;3.40;;
74636;SDS011;63141;54.616;39.754;2023-07-16T14:06:12;4.20;;;3.30;;
74636;SDS011;63141;54.616;39.754;2023-07-16T14:12:32;4.30;;;3.85;;
74636;SDS011;63141;54.616;39.754;2023-07-16T14:15:43;3.90;;;3.40;;
74636;SDS011;63141;54.616;39.754;2023-07-16T14:18:51;4.13;;;3.50;;
74636;SDS011;63141;54.616;39.754;2023-07-16T14:22:03;3.67;;;3.20;;
74636;SDS011;63141;54.616;39.754;2023-07-16T14:25:09;5.25;;;3.33;;
74636;SDS011;63141;54.616;39.754;2023-07-16T14:28:13;4.57;;;3.38;;
74636;SDS011;63141;54.616;39.754;2023-07-16T14:31:26;5.20;;;3.47;;
74636;SDS011;63141;54.616;39.754;2023-07-16T14:34:39;4.47;;;3.33;;
74636;SDS011;63141;54.616;39.754;2023-07-16T14:37:46;6.03;;;3.33;;
74636;SDS011;63141;54.616;39.754;2023-07-16T14:40:52;4.53;;;3.38;;
74636;SDS011;63141;54.616;39.754;2023-07-16T14:44:04;4.22;;;3.22;;
74636;SDS011;63141;54.616;39.754;2023-07-16T14:47:14;4.00;;;3.42;;
74636;SDS011;63141;54.616;39.754;2023-07-16T14:50:19;3.60;;;3.30;;
74636;SDS011;63141;54.616;39.754;2023-07-16T14:53:38;4.95;;;3.55;;
74636;SDS011;63141;54.616;39.754;2023-07-16T14:57:01;5.32;;;3.67;;
74636;SDS011;63141;54.616;39.754;2023-07-16T15:00:14;4.25;;;3.53;;
74636;SDS011;63141;54.616;39.754;2023-07-16T15:03:26;4.25;;;3.50;;
74636;SDS011;63141;54.616;39.754;2023-07-16T15:06:33;4.13;;;3.38;;
74636;SDS011;63141;54.616;39.754;2023-07-16T15:09:35;4.70;;;3.60;;
74636;SDS011;63141;54.616;39.754;2023-07-16T15:12:39;3.90;;;3.50;;
74636;SDS011;63141;54.616;39.754;2023-07-16T15:15:48;5.43;;;3.67;;
74636;SDS011;63141;54.616;39.754;2023-07-16T15:18:53;3.83;;;3.40;;
74636;SDS011;63141;54.616;39.754;2023-07-16T15:22:03;4.55;;;3.55;;
74636;SDS011;63141;54.616;39.754;2023-07-16T15:25:05;4.15;;;3.67;;
74636;SDS011;63141;54.616;39.754;2023-07-16T15:28:13;4.40;;;3.60;;
74636;SDS011;63141;54.616;39.754;2023-07-16T15:31:32;3.45;;;3.15;;
74636;SDS011;63141;54.616;39.754;2023-07-16T15:34:39;3.78;;;3.38;;
74636;SDS011;63141;54.616;39.754;2023-07-16T15:37:49;3.60;;;3.10;;
74636;SDS011;63141;54.616;39.754;2023-07-16T15:40:51;4.47;;;3.97;;
74636;SDS011;63141;54.616;39.754;2023-07-16T15:44:02;6.07;;;3.72;;
74636;SDS011;63141;54.616;39.754;2023-07-16T15:47:09;5.00;;;3.35;;
74636;SDS011;63141;54.616;39.754;2023-07-16T15:50:10;4.63;;;3.58;;
74636;SDS011;63141;54.616;39.754;2023-07-16T15:53:14;5.00;;;3.85;;
74636;SDS011;63141;54.616;39.754;2023-07-16T15:56:28;7.72;;;3.67;;
74636;SDS011;63141;54.616;39.754;2023-07-16T15:59:36;5.97;;;3.30;;
74636;SDS011;63141;54.616;39.754;2023-07-16T16:02:43;8.27;;;3.55;;
74636;SDS011;63141;54.616;39.754;2023-07-16T16:06:11;6.68;;;3.75;;
74636;SDS011;63141;54.616;39.754;2023-07-16T16:09:24;6.18;;;4.05;;
74636;SDS011;63141;54.616;39.754;2023-07-16T16:12:28;8.48;;;4.50;;
74636;SDS011;63141;54.616;39.754;2023-07-16T16:15:41;9.80;;;4.05;;
74636;SDS011;63141;54.616;39.754;2023-07-16T16:18:57;8.25;;;4.20;;
74636;SDS011;63141;54.616;39.754;2023-07-16T16:21:58;12.57;;;4.28;;
74636;SDS011;63141;54.616;39.754;2023-07-16T16:25:09;7.55;;;4.25;;
74636;SDS011;63141;54.616;39.754;2023-07-16T16:28:13;7.07;;;3.50;;
74636;SDS011;63141;54.616;39.754;2023-07-16T16:31:21;6.30;;;3.38;;
74636;SDS011;63141;54.616;39.754;2023-07-16T16:34:22;7.47;;;3.30;;
74636;SDS011;63141;54.616;39.754;2023-07-16T16:37:24;5.93;;;3.70;;
74636;SDS011;63141;54.616;39.754;2023-07-16T16:40:31;54.53;;;27.55;;
74636;SDS011;63141;54.616;39.754;2023-07-16T16:43:42;20.75;;;10.85;;
74636;SDS011;63141;54.616;39.754;2023-07-16T16:46:49;11.45;;;6.90;;
74636;SDS011;63141;54.616;39.754;2023-07-16T16:49:56;7.45;;;5.55;;
74636;SDS011;63141;54.616;39.754;2023-07-16T16:53:00;9.07;;;5.50;;
74636;SDS011;63141;54.616;39.754;2023-07-16T16:56:17;10.52;;;4.80;;
74636;SDS011;63141;54.616;39.754;2023-07-16T16:59:19;6.60;;;4.18;;
74636;SDS011;63141;54.616;39.754;2023-07-16T17:02:23;7.40;;;4.30;;
74636;SDS011;63141;54.616;39.754;2023-07-16T17:05:34;7.47;;;3.78;;
74636;SDS011;63141;54.616;39.754;2023-07-16T17:08:38;10.18;;;4.00;;
74636;SDS011;63141;54.616;39.754;2023-07-16T17:11:39;9.25;;;3.58;;
74636;SDS011;63141;54.616;39.754;2023-07-16T17:14:53;6.70;;;3.60;;
74636;SDS011;63141;54.616;39.754;2023-07-16T17:17:54;4.97;;;3.42;;
74636;SDS011;63141;54.616;39.754;2023-07-16T17:21:04;12.90;;;4.22;;
74636;SDS011;63141;54.616;39.754;2023-07-16T17:24:06;9.48;;;3.88;;
74636;SDS011;63141;54.616;39.754;2023-07-16T17:27:13;9.73;;;3.53;;
74636;SDS011;63141;54.616;39.754;2023-07-16T17:30:29;6.05;;;3.45;;
74636;SDS011;63141;54.616;39.754;2023-07-16T17:33:31;7.88;;;3.33;;
74636;SDS011;63141;54.616;39.754;2023-07-16T17:36:44;8.45;;;3.40;;
74636;SDS011;63141;54.616;39.754;2023-07-16T17:39:48;8.30;;;3.53;;
74636;SDS011;63141;54.616;39.754;2023-07-16T17:42:53;7.55;;;3.72;;
74636;SDS011;63141;54.616;39.754;2023-07-16T17:46:08;17.60;;;4.47;;
74636;SDS011;63141;54.616;39.754;2023-07-16T17:49:15;21.65;;;4.20;;
74636;SDS011;63141;54.616;39.754;2023-07-16T17:52:23;13.38;;;4.38;;
74636;SDS011;63141;54.616;39.754;2023-07-16T17:55:32;23.77;;;4.60;;
74636;SDS011;63141;54.616;39.754;2023-07-16T17:58:40;19.70;;;4.38;;
74636;SDS011;63141;54.616;39.754;2023-07-16T18:01:43;10.75;;;3.75;;
74636;SDS011;63141;54.616;39.754;2023-07-16T18:04:45;14.35;;;3.65;;
74636;SDS011;63141;54.616;39.754;2023-07-16T18:07:59;18.40;;;4.13;;
74636;SDS011;63141;54.616;39.754;2023-07-16T18:11:04;18.58;;;4.10;;
74636;SDS011;63141;54.616;39.754;2023-07-16T18:14:15;6.50;;;3.92;;
74636;SDS011;63141;54.616;39.754;2023-07-16T18:17:25;11.55;;;3.53;;
74636;SDS011;63141;54.616;39.754;2023-07-16T18:20:27;10.48;;;3.45;;
74636;SDS011;63141;54.616;39.754;2023-07-16T18:23:29;6.35;;;3.33;;